Time;durP1;ratioP1;P1;durP2;ratioP2;P2;SDS_P1;SDS_P2;PMS_P1;PMS_P2;Temp;Humidity;BMP_temperature;BMP_pressure;BME280_temperature;BME280_humidity;BME280_pressure;Samples;Min_cycle;Max_cycle;Signal;HPM_P1;HPM_P2
2021/12/18 00:01:27;;;;;;;18.65;11.02;;;;;;;;;;4967023;28;20043;-77
2021/12/18 00:03:57;;;;;;;22.30;11.35;;;;;;;;;;4974339;28;20026;-77
2021/12/18 00:06:27;;;;;;;20.77;11.57;;;;;;;;;;4975140;28;20047;-77
2021/12/18 00:08:54;;;;;;;23.42;12.13;;;;;;;;;;4974547;28;20497;-76
2021/12/18 00:11:20;;;;;;;25.02;12.60;;;;;;;;;;4974766;28;20481;-76
2021/12/18 00:13:46;;;;;;;23.83;12.93;;;;;;;;;;4974693;28;20593;-77
2021/12/18 00:16:12;;;;;;;25.75;12.85;;;;;;;;;;4973014;28;20122;-77
2021/12/18 00:18:38;;;;;;;24.50;12.35;;;;;;;;;;4974696;28;20430;-76
2021/12/18 00:21:05;;;;;;;27.60;14.15;;;;;;;;;;4974523;28;20118;-77
2021/12/18 00:23:31;;;;;;;24.42;12.73;;;;;;;;;;4974536;28;20035;-79
2021/12/18 00:25:57;;;;;;;23.85;11.68;;;;;;;;;;4974230;28;20493;-78
2021/12/18 00:28:24;;;;;;;23.10;12.57;;;;;;;;;;4974736;28;20093;-77
2021/12/18 00:30:50;;;;;;;21.65;11.70;;;;;;;;;;4974616;28;20710;-77
2021/12/18 00:33:16;;;;;;;24.73;11.65;;;;;;;;;;4974920;28;20039;-78
2021/12/18 00:35:42;;;;;;;20.75;11.43;;;;;;;;;;4972501;28;20493;-78
2021/12/18 00:38:08;;;;;;;23.35;10.88;;;;;;;;;;4974951;28;20058;-78
2021/12/18 00:40:46;;;;;;;22.35;11.15;;;;;;;;;;4974607;28;20043;-76
2021/12/18 00:43:25;;;;;;;22.33;10.43;;;;;;;;;;4974197;28;20139;-78
2021/12/18 00:45:51;;;;;;;21.23;11.00;;;;;;;;;;4974025;28;20045;-77
2021/12/18 00:48:17;;;;;;;22.25;10.73;;;;;;;;;;4973721;28;20050;-77
2021/12/18 00:50:43;;;;;;;19.65;10.90;;;;;;;;;;4974409;28;20043;-77
2021/12/18 00:53:09;;;;;;;18.05;9.82;;;;;;;;;;4972851;28;20088;-77
2021/12/18 00:55:38;;;;;;;20.55;10.82;;;;;;;;;;4973462;28;20590;-77
2021/12/18 00:58:05;;;;;;;23.00;11.07;;;;;;;;;;5003676;28;20039;-77
2021/12/18 01:00:31;;;;;;;18.42;9.95;;;;;;;;;;5004751;28;20051;-77
2021/12/18 01:03:00;;;;;;;21.63;10.45;;;;;;;;;;4973839;28;20194;-77
2021/12/18 01:05:28;;;;;;;21.15;10.65;;;;;;;;;;4974003;28;20050;-77
2021/12/18 01:07:58;;;;;;;18.63;10.50;;;;;;;;;;4973842;28;20053;-77
2021/12/18 01:13:16;;;;;;;19.50;10.43;;;;;;;;;;4973851;28;20039;-77
2021/12/18 01:15:47;;;;;;;19.33;10.65;;;;;;;;;;4973724;28;20050;-77
2021/12/18 01:23:42;;;;;;;18.60;10.23;;;;;;;;;;4974575;28;20466;-77
2021/12/18 01:26:08;;;;;;;19.85;10.13;;;;;;;;;;4973125;28;20043;-76
2021/12/18 01:28:33;;;;;;;18.85;10.65;;;;;;;;;;4973190;28;20188;-77
2021/12/18 01:31:01;;;;;;;23.20;10.50;;;;;;;;;;4972956;28;20117;-77
2021/12/18 01:33:27;;;;;;;21.80;10.82;;;;;;;;;;4973295;28;20047;-77
2021/12/18 01:35:53;;;;;;;23.35;11.20;;;;;;;;;;5002863;28;20038;-77
2021/12/18 01:38:21;;;;;;;25.35;11.32;;;;;;;;;;4973107;28;20397;-77
2021/12/18 01:40:47;;;;;;;23.92;11.75;;;;;;;;;;4973357;28;20042;-78
2021/12/18 01:44:10;;;;;;;26.42;11.07;;;;;;;;;;4973285;28;20487;-77
2021/12/18 01:52:03;;;;;;;21.73;11.00;;;;;;;;;;4977116;28;20489;-77
2021/12/18 01:54:19;;;;;;;23.88;10.40;;;;;;;;;;4971763;28;20495;-77
2021/12/18 01:56:45;;;;;;;20.33;10.20;;;;;;;;;;4971866;28;20035;-77
2021/12/18 01:59:11;;;;;;;19.95;10.43;;;;;;;;;;4971873;28;20027;-77
2021/12/18 02:01:37;;;;;;;21.73;10.13;;;;;;;;;;4972035;28;20039;-77
2021/12/18 02:04:03;;;;;;;20.83;10.57;;;;;;;;;;4971829;28;20477;-78
2021/12/18 02:06:29;;;;;;;23.20;10.85;;;;;;;;;;4972164;28;20053;-77
2021/12/18 02:08:55;;;;;;;21.23;10.82;;;;;;;;;;4971938;28;20031;-77
2021/12/18 02:21:58;;;;;;;20.10;9.88;;;;;;;;;;4972952;28;20027;-77
2021/12/18 02:24:27;;;;;;;21.25;10.57;;;;;;;;;;4971566;28;20035;-77
2021/12/18 02:26:53;;;;;;;19.70;10.32;;;;;;;;;;4972100;28;20047;-77
2021/12/18 02:29:19;;;;;;;19.55;9.95;;;;;;;;;;4972004;28;20053;-77
2021/12/18 02:31:45;;;;;;;20.58;10.48;;;;;;;;;;4971809;28;20045;-77
2021/12/18 02:34:19;;;;;;;21.10;10.80;;;;;;;;;;4971460;28;20041;-77
2021/12/18 02:36:47;;;;;;;24.08;10.77;;;;;;;;;;4971782;28;20058;-77
2021/12/18 02:39:41;;;;;;;23.65;11.23;;;;;;;;;;4971415;28;20063;-77
2021/12/18 02:44:34;;;;;;;24.88;11.38;;;;;;;;;;4971637;28;20019;-77
2021/12/18 02:47:00;;;;;;;23.13;11.75;;;;;;;;;;4971238;28;20058;-77
2021/12/18 02:49:27;;;;;;;20.20;11.48;;;;;;;;;;4970315;28;20031;-77
2021/12/18 02:51:53;;;;;;;22.25;11.25;;;;;;;;;;4971519;28;20038;-77
2021/12/18 02:54:19;;;;;;;24.48;11.80;;;;;;;;;;4971349;28;20043;-77
2021/12/18 02:56:45;;;;;;;25.02;12.13;;;;;;;;;;4971903;28;20070;-78
2021/12/18 02:59:11;;;;;;;25.10;11.35;;;;;;;;;;4970916;28;20109;-77
2021/12/18 03:01:40;;;;;;;26.73;12.07;;;;;;;;;;4975485;28;20540;-77
2021/12/18 03:04:29;;;;;;;24.23;11.27;;;;;;;;;;4975372;28;20035;-76
2021/12/18 03:07:00;;;;;;;22.20;10.95;;;;;;;;;;4975501;28;20206;-76
2021/12/18 03:25:39;;;;;;;23.95;11.15;;;;;;;;;;4980214;28;20054;-77
2021/12/18 03:28:07;;;;;;;26.02;11.70;;;;;;;;;;4999782;28;20049;-77
2021/12/18 03:30:34;;;;;;;23.92;11.40;;;;;;;;;;4999546;28;20019;-77
2021/12/18 03:33:01;;;;;;;25.80;11.75;;;;;;;;;;4997450;28;20055;-77
2021/12/18 03:35:27;;;;;;;24.40;11.27;;;;;;;;;;4999758;28;20041;-76
2021/12/18 03:37:53;;;;;;;22.38;10.63;;;;;;;;;;4999735;28;20066;-77
2021/12/18 03:40:22;;;;;;;23.42;11.57;;;;;;;;;;4993986;28;20053;-77
2021/12/18 03:42:48;;;;;;;25.20;11.68;;;;;;;;;;4999915;28;20027;-78
2021/12/18 03:45:16;;;;;;;28.60;10.98;;;;;;;;;;4999707;28;20041;-76
2021/12/18 03:47:42;;;;;;;23.05;11.43;;;;;;;;;;4999310;28;20049;-77
2021/12/18 03:50:09;;;;;;;27.88;11.60;;;;;;;;;;4997455;28;20054;-77
2021/12/18 03:52:35;;;;;;;26.20;10.88;;;;;;;;;;5000373;28;20041;-77
2021/12/18 03:55:01;;;;;;;24.95;11.70;;;;;;;;;;4999157;28;20054;-77
2021/12/18 03:57:26;;;;;;;23.85;11.73;;;;;;;;;;4988573;28;20057;-77
2021/12/18 03:59:52;;;;;;;26.10;11.55;;;;;;;;;;4978517;28;20537;-77
2021/12/18 04:02:19;;;;;;;27.67;12.35;;;;;;;;;;4982602;28;20022;-77
2021/12/18 04:04:44;;;;;;;20.65;9.95;;;;;;;;;;4999445;28;20051;-77
2021/12/18 04:07:10;;;;;;;23.23;11.20;;;;;;;;;;4985726;28;20065;-77
2021/12/18 04:09:36;;;;;;;26.58;12.23;;;;;;;;;;4977085;28;20030;-76
2021/12/18 04:12:03;;;;;;;25.00;12.23;;;;;;;;;;4975143;28;20045;-76
2021/12/18 04:14:30;;;;;;;24.38;11.82;;;;;;;;;;4976719;28;20047;-77
2021/12/18 04:16:56;;;;;;;25.00;11.20;;;;;;;;;;4977062;28;20038;-77
2021/12/18 04:19:22;;;;;;;24.85;11.82;;;;;;;;;;4976003;28;20073;-76
2021/12/18 04:21:48;;;;;;;25.30;11.90;;;;;;;;;;4974310;28;20043;-77
2021/12/18 04:24:14;;;;;;;28.48;12.70;;;;;;;;;;4974246;28;20034;-77
2021/12/18 04:26:40;;;;;;;28.80;11.50;;;;;;;;;;4975333;28;20501;-77
2021/12/18 04:29:06;;;;;;;22.95;11.65;;;;;;;;;;4974838;28;20037;-76
2021/12/18 04:31:37;;;;;;;23.95;10.98;;;;;;;;;;4975128;28;20042;-77
2021/12/18 04:34:04;;;;;;;28.48;13.02;;;;;;;;;;4975520;28;20030;-77
2021/12/18 04:36:30;;;;;;;26.88;12.30;;;;;;;;;;4973885;28;20390;-77
2021/12/18 04:38:56;;;;;;;27.58;11.98;;;;;;;;;;4975703;28;20432;-77
2021/12/18 04:41:34;;;;;;;25.30;12.10;;;;;;;;;;4975468;28;20066;-77
2021/12/18 04:44:00;;;;;;;24.08;11.43;;;;;;;;;;4974155;28;20346;-77
2021/12/18 04:46:26;;;;;;;26.30;11.75;;;;;;;;;;4975779;28;20063;-77
2021/12/18 04:48:52;;;;;;;24.70;12.15;;;;;;;;;;4974118;28;20464;-77
2021/12/18 04:51:18;;;;;;;24.55;10.77;;;;;;;;;;4973592;28;20122;-77
2021/12/18 04:53:44;;;;;;;22.67;10.50;;;;;;;;;;4973516;28;20037;-78
2021/12/18 04:56:10;;;;;;;24.02;11.07;;;;;;;;;;4973310;28;20047;-77
2021/12/18 04:58:35;;;;;;;23.77;11.35;;;;;;;;;;4972897;28;20158;-77
2021/12/18 05:01:02;;;;;;;24.98;11.82;;;;;;;;;;4973684;28;20074;-77
2021/12/18 05:03:28;;;;;;;23.38;12.25;;;;;;;;;;4973833;28;20039;-77
2021/12/18 05:05:54;;;;;;;22.52;10.88;;;;;;;;;;4973671;28;20042;-77
2021/12/18 05:08:20;;;;;;;24.45;11.85;;;;;;;;;;4973300;28;20041;-77
2021/12/18 05:10:46;;;;;;;28.42;12.55;;;;;;;;;;4973773;28;20469;-77
2021/12/18 05:13:12;;;;;;;24.33;11.73;;;;;;;;;;4973316;28;20043;-77
2021/12/18 05:15:38;;;;;;;26.98;12.55;;;;;;;;;;4974562;28;20039;-76
2021/12/18 05:18:04;;;;;;;24.83;11.75;;;;;;;;;;4974790;28;20054;-77
2021/12/18 05:20:30;;;;;;;26.95;12.13;;;;;;;;;;4974697;28;20405;-76
2021/12/18 05:22:56;;;;;;;28.08;12.45;;;;;;;;;;4975464;28;20042;-76
2021/12/18 05:25:22;;;;;;;28.60;13.73;;;;;;;;;;4974512;28;20050;-76
2021/12/18 05:27:48;;;;;;;28.10;12.57;;;;;;;;;;4973259;28;20038;-77
2021/12/18 05:30:14;;;;;;;27.13;12.45;;;;;;;;;;4973226;28;20073;-77
2021/12/18 05:32:40;;;;;;;26.77;13.23;;;;;;;;;;4973288;28;20049;-77
2021/12/18 05:35:06;;;;;;;27.92;13.05;;;;;;;;;;4973344;28;20034;-77
2021/12/18 05:40:14;;;;;;;67.63;35.10;;;;;;;;;;4972161;28;20027;-77
2021/12/18 05:42:40;;;;;;;35.95;15.70;;;;;;;;;;4973157;28;20054;-77
2021/12/18 05:45:07;;;;;;;27.92;12.50;;;;;;;;;;4973118;28;20482;-77
2021/12/18 05:47:33;;;;;;;24.45;11.35;;;;;;;;;;4973040;28;20042;-77
2021/12/18 05:49:59;;;;;;;25.50;12.63;;;;;;;;;;4972990;28;20042;-77
2021/12/18 05:52:26;;;;;;;27.80;12.98;;;;;;;;;;4972715;28;20492;-77
2021/12/18 05:54:51;;;;;;;26.42;12.88;;;;;;;;;;4972859;28;20045;-77
2021/12/18 05:57:17;;;;;;;25.63;12.30;;;;;;;;;;4972499;28;20125;-77
2021/12/18 05:59:44;;;;;;;26.35;12.27;;;;;;;;;;4972546;28;20093;-77
2021/12/18 06:02:10;;;;;;;21.95;11.20;;;;;;;;;;4972697;28;20543;-76
2021/12/18 06:04:36;;;;;;;22.90;11.73;;;;;;;;;;4972516;28;20042;-76
2021/12/18 06:07:07;;;;;;;22.95;12.13;;;;;;;;;;4972277;28;20114;-77
2021/12/18 06:09:36;;;;;;;26.27;13.32;;;;;;;;;;4972073;28;20405;-79
2021/12/18 06:12:02;;;;;;;26.20;12.18;;;;;;;;;;4972716;28;20027;-77
2021/12/18 06:14:29;;;;;;;22.90;11.98;;;;;;;;;;4972627;28;20049;-77
2021/12/18 06:16:55;;;;;;;24.35;12.00;;;;;;;;;;4972446;28;20049;-79
2021/12/18 06:19:21;;;;;;;23.92;11.43;;;;;;;;;;4971366;28;20038;-78
2021/12/18 06:21:47;;;;;;;26.80;12.10;;;;;;;;;;4972528;28;20485;-78
2021/12/18 06:24:13;;;;;;;24.98;11.45;;;;;;;;;;4972529;28;20058;-78
2021/12/18 06:26:39;;;;;;;23.10;11.90;;;;;;;;;;4972802;28;20034;-78
2021/12/18 06:29:05;;;;;;;25.50;11.30;;;;;;;;;;4972300;28;20518;-78
2021/12/18 06:31:32;;;;;;;24.08;11.45;;;;;;;;;;4969480;28;20043;-77
2021/12/18 06:33:58;;;;;;;24.48;12.13;;;;;;;;;;4963081;28;20035;-77
2021/12/18 06:36:24;;;;;;;25.63;11.52;;;;;;;;;;4961022;28;20049;-77
2021/12/18 06:38:49;;;;;;;24.52;12.35;;;;;;;;;;4969059;28;20039;-77
2021/12/18 06:41:15;;;;;;;24.00;11.32;;;;;;;;;;4967085;28;20074;-77
2021/12/18 06:43:41;;;;;;;22.98;11.45;;;;;;;;;;4951850;28;20049;-77
2021/12/18 06:46:07;;;;;;;24.92;11.80;;;;;;;;;;4951638;28;20609;-78
2021/12/18 06:48:34;;;;;;;25.05;11.90;;;;;;;;;;4966753;28;20042;-77
2021/12/18 06:51:06;;;;;;;25.00;11.90;;;;;;;;;;4963489;28;20050;-77
2021/12/18 06:53:32;;;;;;;25.17;12.75;;;;;;;;;;4962091;28;20393;-77
2021/12/18 06:55:58;;;;;;;26.50;12.85;;;;;;;;;;4966532;28;20042;-77
2021/12/18 06:58:24;;;;;;;24.58;12.30;;;;;;;;;;4971412;28;20834;-78
2021/12/18 07:00:53;;;;;;;21.35;10.88;;;;;;;;;;4970333;28;20432;-77
2021/12/18 07:03:20;;;;;;;21.25;11.07;;;;;;;;;;4970399;28;20047;-70
2021/12/18 07:05:47;;;;;;;21.42;10.18;;;;;;;;;;4970205;28;20019;-69
2021/12/18 07:08:13;;;;;;;25.95;11.68;;;;;;;;;;4971547;28;20050;-69
2021/12/18 07:10:39;;;;;;;20.23;11.00;;;;;;;;;;4971575;28;20070;-79
2021/12/18 07:13:05;;;;;;;22.30;11.40;;;;;;;;;;4969375;28;20497;-79
2021/12/18 07:15:31;;;;;;;22.05;10.70;;;;;;;;;;4971547;28;20038;-80
2021/12/18 07:17:57;;;;;;;191.73;78.30;;;;;;;;;;4971251;28;20394;-80
2021/12/18 07:20:23;;;;;;;26.05;12.68;;;;;;;;;;4969895;28;20141;-79
2021/12/18 07:22:49;;;;;;;27.27;13.90;;;;;;;;;;4970788;28;20117;-79
2021/12/18 07:25:15;;;;;;;35.05;18.08;;;;;;;;;;4969604;28;20105;-79
2021/12/18 07:27:40;;;;;;;22.63;11.02;;;;;;;;;;4969839;28;20039;-79
2021/12/18 07:30:08;;;;;;;22.25;11.32;;;;;;;;;;4969955;28;20023;-80
2021/12/18 07:32:34;;;;;;;22.73;10.85;;;;;;;;;;4970998;28;20046;-80
2021/12/18 07:34:59;;;;;;;22.38;11.63;;;;;;;;;;4969550;28;20046;-80
2021/12/18 07:37:25;;;;;;;24.13;12.35;;;;;;;;;;4971356;28;20062;-79
2021/12/18 07:39:53;;;;;;;22.73;11.68;;;;;;;;;;4971969;28;20130;-79
2021/12/18 07:42:19;;;;;;;24.23;11.60;;;;;;;;;;4972349;28;20035;-80
2021/12/18 07:44:45;;;;;;;22.90;10.75;;;;;;;;;;4972469;28;20458;-80
2021/12/18 07:47:11;;;;;;;23.35;12.13;;;;;;;;;;4973669;28;20046;-80
2021/12/18 07:49:37;;;;;;;26.10;12.27;;;;;;;;;;4973940;28;20070;-80
2021/12/18 07:52:04;;;;;;;21.85;11.43;;;;;;;;;;4974974;28;20122;-80
2021/12/18 07:54:31;;;;;;;25.90;12.52;;;;;;;;;;4975203;28;20043;-79
2021/12/18 07:56:57;;;;;;;26.77;11.90;;;;;;;;;;4975397;28;20397;-80
2021/12/18 07:59:23;;;;;;;65.97;33.92;;;;;;;;;;4975168;28;20043;-79
2021/12/18 08:01:48;;;;;;;24.67;12.60;;;;;;;;;;4974677;28;20461;-79
2021/12/18 08:04:14;;;;;;;27.67;12.73;;;;;;;;;;4973537;28;20041;-80
2021/12/18 08:06:40;;;;;;;25.75;12.02;;;;;;;;;;4974896;28;20375;-80
2021/12/18 08:09:06;;;;;;;26.92;13.00;;;;;;;;;;4974699;28;20050;-80
2021/12/18 08:11:32;;;;;;;25.95;12.68;;;;;;;;;;4974960;28;20049;-80
2021/12/18 08:13:58;;;;;;;26.17;13.05;;;;;;;;;;4974793;28;20046;-79
2021/12/18 08:16:24;;;;;;;27.35;12.18;;;;;;;;;;4973809;28;20552;-81
2021/12/18 08:18:50;;;;;;;32.35;13.02;;;;;;;;;;4975133;28;20042;-78
2021/12/18 08:21:16;;;;;;;24.10;11.85;;;;;;;;;;4975377;28;20038;-81
2021/12/18 08:23:42;;;;;;;27.38;13.05;;;;;;;;;;4968428;28;20496;-79
2021/12/18 08:26:08;;;;;;;27.83;12.80;;;;;;;;;;4957400;28;20043;-79
2021/12/18 08:28:34;;;;;;;24.10;12.65;;;;;;;;;;4955217;28;20380;-78
2021/12/18 08:31:00;;;;;;;25.73;12.68;;;;;;;;;;4955626;28;20035;-77
2021/12/18 08:33:26;;;;;;;24.98;13.30;;;;;;;;;;4960290;28;20126;-78
2021/12/18 08:35:52;;;;;;;30.13;12.95;;;;;;;;;;4969301;28;20046;-81
2021/12/18 08:38:18;;;;;;;28.38;13.43;;;;;;;;;;4973122;28;20042;-79
2021/12/18 08:40:45;;;;;;;27.35;13.43;;;;;;;;;;4975009;28;20042;-78
2021/12/18 08:43:11;;;;;;;28.65;13.50;;;;;;;;;;4972447;28;20063;-82
2021/12/18 08:45:38;;;;;;;24.98;13.35;;;;;;;;;;4957308;28;20035;-79
2021/12/18 08:48:04;;;;;;;25.95;13.50;;;;;;;;;;4955102;28;20043;-78
2021/12/18 08:50:30;;;;;;;28.98;14.55;;;;;;;;;;4955099;28;20040;-78
2021/12/18 08:52:56;;;;;;;27.02;14.25;;;;;;;;;;4954499;29;20382;-79
2021/12/18 08:55:23;;;;;;;30.38;13.00;;;;;;;;;;4971170;28;20039;-80
2021/12/18 08:57:50;;;;;;;26.70;14.30;;;;;;;;;;4958230;28;20027;-81
2021/12/18 09:00:21;;;;;;;24.00;13.30;;;;;;;;;;4954584;29;20042;-80
2021/12/18 09:02:48;;;;;;;28.17;13.38;;;;;;;;;;4954629;28;20050;-81
2021/12/18 09:05:15;;;;;;;90.35;46.95;;;;;;;;;;4967622;28;20039;-76
2021/12/18 09:07:42;;;;;;;89.65;42.13;;;;;;;;;;4970472;28;20051;-76
2021/12/18 09:10:11;;;;;;;30.98;17.10;;;;;;;;;;4969797;28;20053;-75
2021/12/18 09:12:37;;;;;;;23.60;13.55;;;;;;;;;;4971616;28;20031;-76
2021/12/18 09:15:04;;;;;;;27.38;13.85;;;;;;;;;;4965962;28;20043;-74
2021/12/18 09:17:30;;;;;;;26.30;13.70;;;;;;;;;;4954414;28;20039;-75
2021/12/18 09:19:56;;;;;;;26.02;13.20;;;;;;;;;;4973611;28;20058;-77
2021/12/18 09:22:22;;;;;;;23.05;12.90;;;;;;;;;;4954198;28;20506;-75
2021/12/18 09:24:48;;;;;;;23.10;12.40;;;;;;;;;;4953714;28;20047;-75
2021/12/18 09:27:17;;;;;;;24.77;13.60;;;;;;;;;;4953381;29;20111;-75
2021/12/18 09:29:44;;;;;;;24.25;13.95;;;;;;;;;;4953719;29;20031;-75
2021/12/18 09:32:10;;;;;;;24.25;12.98;;;;;;;;;;4954214;28;20051;-75
2021/12/18 09:34:36;;;;;;;24.70;12.88;;;;;;;;;;4953019;28;20039;-76
2021/12/18 09:37:03;;;;;;;67.03;33.65;;;;;;;;;;4953761;28;20066;-75
2021/12/18 09:39:29;;;;;;;21.05;11.65;;;;;;;;;;4953939;28;20039;-74
2021/12/18 09:41:55;;;;;;;20.20;10.38;;;;;;;;;;4962652;28;20405;-74
2021/12/18 09:44:27;;;;;;;21.20;11.77;;;;;;;;;;5004021;28;20646;-75
2021/12/18 09:46:54;;;;;;;18.55;10.55;;;;;;;;;;4990680;28;20042;-76
2021/12/18 09:49:20;;;;;;;20.15;11.48;;;;;;;;;;4975966;28;20046;-75
2021/12/18 09:51:47;;;;;;;20.77;11.05;;;;;;;;;;4970250;28;20035;-75
2021/12/18 09:54:14;;;;;;;21.65;12.57;;;;;;;;;;4971011;28;20042;-74
2021/12/18 09:56:40;;;;;;;23.63;13.00;;;;;;;;;;4971104;28;20481;-76
2021/12/18 09:59:06;;;;;;;24.80;12.65;;;;;;;;;;4968164;28;20063;-74
2021/12/18 10:01:33;;;;;;;19.85;10.75;;;;;;;;;;4971362;28;20073;-74
2021/12/18 10:04:00;;;;;;;21.50;10.63;;;;;;;;;;4971607;28;20026;-75
2021/12/18 10:06:42;;;;;;;17.58;9.82;;;;;;;;;;4971588;28;20046;-75
2021/12/18 10:09:31;;;;;;;19.83;9.65;;;;;;;;;;4971050;28;20050;-75
2021/12/18 10:11:59;;;;;;;18.50;10.52;;;;;;;;;;4970581;28;20043;-74
2021/12/18 10:14:39;;;;;;;18.90;10.90;;;;;;;;;;4971739;28;20396;-75
2021/12/18 10:17:30;;;;;;;18.65;10.45;;;;;;;;;;4970488;28;20046;-75
2021/12/18 10:20:11;;;;;;;21.10;12.07;;;;;;;;;;4971642;28;20521;-75
2021/12/18 10:22:50;;;;;;;21.90;12.25;;;;;;;;;;4969510;28;20920;-75
2021/12/18 10:25:23;;;;;;;21.95;11.80;;;;;;;;;;4926658;28;20058;-72
2021/12/18 10:28:11;;;;;;;22.65;12.02;;;;;;;;;;4971013;28;20054;-76
2021/12/18 10:30:49;;;;;;;22.85;11.77;;;;;;;;;;4970472;28;20059;-75
2021/12/18 10:33:16;;;;;;;20.70;10.50;;;;;;;;;;4971325;28;20062;-74
2021/12/18 10:35:50;;;;;;;20.58;11.52;;;;;;;;;;4972740;28;20055;-75
2021/12/18 10:38:44;;;;;;;19.30;11.43;;;;;;;;;;4972221;28;20043;-75
2021/12/18 10:41:35;;;;;;;22.15;11.32;;;;;;;;;;4971909;28;20061;-74
2021/12/18 10:44:09;;;;;;;16.52;10.00;;;;;;;;;;4971043;28;20054;-73
2021/12/18 10:46:38;;;;;;;21.08;11.18;;;;;;;;;;4971913;28;20035;-74
2021/12/18 10:49:06;;;;;;;19.35;10.98;;;;;;;;;;4969889;28;20055;-74
2021/12/18 10:51:34;;;;;;;23.02;11.73;;;;;;;;;;4968944;28;20038;-74
2021/12/18 10:54:05;;;;;;;21.05;12.52;;;;;;;;;;4971232;28;20035;-74
2021/12/18 10:56:46;;;;;;;29.80;15.32;;;;;;;;;;4970570;28;20046;-74
2021/12/18 10:59:46;;;;;;;22.88;12.82;;;;;;;;;;4969530;28;20034;-74
2021/12/18 11:02:14;;;;;;;22.48;12.52;;;;;;;;;;4970710;28;20039;-75
2021/12/18 11:04:43;;;;;;;21.13;13.30;;;;;;;;;;4971025;28;20498;-76
2021/12/18 11:07:20;;;;;;;21.85;11.93;;;;;;;;;;4970384;28;20493;-74
2021/12/18 11:10:00;;;;;;;21.98;13.00;;;;;;;;;;4970269;28;20031;-75
2021/12/18 11:15:10;;;;;;;37.67;20.35;;;;;;;;;;4970781;28;20498;-75
2021/12/18 11:17:37;;;;;;;33.97;18.55;;;;;;;;;;4971494;28;20042;-79
2021/12/18 11:20:03;;;;;;;26.27;13.73;;;;;;;;;;4972912;28;20030;-73
2021/12/18 11:22:30;;;;;;;25.35;13.25;;;;;;;;;;4982768;28;20047;-73
2021/12/18 11:25:10;;;;;;;19.50;11.02;;;;;;;;;;4974369;28;20038;-73
2021/12/18 11:27:37;;;;;;;20.45;11.80;;;;;;;;;;4975169;28;20039;-73
2021/12/18 11:30:09;;;;;;;24.75;12.98;;;;;;;;;;4975060;28;20047;-73
2021/12/18 11:32:40;;;;;;;24.10;15.18;;;;;;;;;;4977055;28;20043;-73
2021/12/18 11:35:09;;;;;;;26.83;14.27;;;;;;;;;;4976339;28;20054;-73
2021/12/18 11:37:59;;;;;;;23.85;14.48;;;;;;;;;;4975640;28;20034;-73
2021/12/18 11:40:32;;;;;;;27.10;13.98;;;;;;;;;;4976332;28;20485;-72
2021/12/18 11:42:58;;;;;;;23.75;13.00;;;;;;;;;;4976013;28;20047;-73
2021/12/18 11:45:32;;;;;;;19.15;11.55;;;;;;;;;;4975605;28;20043;-73
2021/12/18 11:48:01;;;;;;;24.08;12.63;;;;;;;;;;4975176;28;20045;-73
2021/12/18 11:50:33;;;;;;;41.63;23.30;;;;;;;;;;4975620;28;20202;-73
2021/12/18 11:53:12;;;;;;;22.65;12.77;;;;;;;;;;4975200;28;20042;-72
2021/12/18 11:55:58;;;;;;;23.90;13.40;;;;;;;;;;4974635;28;20046;-74
2021/12/18 11:58:27;;;;;;;24.40;13.52;;;;;;;;;;4977438;28;20035;-78
2021/12/18 12:01:02;;;;;;;24.50;13.43;;;;;;;;;;4979002;28;20057;-75
2021/12/18 12:03:38;;;;;;;24.63;14.35;;;;;;;;;;4977974;28;20039;-74
2021/12/18 12:06:33;;;;;;;26.40;14.05;;;;;;;;;;4974258;28;20034;-74
2021/12/18 12:09:15;;;;;;;29.65;15.02;;;;;;;;;;4974196;28;20540;-74
2021/12/18 12:11:57;;;;;;;31.15;15.02;;;;;;;;;;4973984;28;20046;-76
2021/12/18 12:14:30;;;;;;;23.88;13.73;;;;;;;;;;4974910;28;20381;-75
2021/12/18 12:17:06;;;;;;;28.42;14.85;;;;;;;;;;4975175;28;20039;-75
2021/12/18 12:19:35;;;;;;;29.88;16.63;;;;;;;;;;4974460;28;20027;-74
2021/12/18 12:22:05;;;;;;;29.05;16.35;;;;;;;;;;4975013;28;20050;-74
2021/12/18 12:24:51;;;;;;;29.35;15.40;;;;;;;;;;4979158;28;20051;-75
2021/12/18 12:27:27;;;;;;;25.50;14.38;;;;;;;;;;4979821;28;20049;-74
2021/12/18 12:29:53;;;;;;;25.55;15.02;;;;;;;;;;4979080;28;20047;-75
2021/12/18 12:32:20;;;;;;;22.90;13.10;;;;;;;;;;4985667;28;20043;-74
2021/12/18 12:35:21;;;;;;;21.20;12.80;;;;;;;;;;4988095;28;20034;-74
2021/12/18 12:37:48;;;;;;;25.33;14.13;;;;;;;;;;4971024;29;20062;-76
2021/12/18 12:40:31;;;;;;;22.90;14.13;;;;;;;;;;4982885;28;20531;-75
2021/12/18 12:43:35;;;;;;;25.95;14.50;;;;;;;;;;4986973;28;20504;-75
2021/12/18 12:46:06;;;;;;;28.02;15.55;;;;;;;;;;4992612;28;20039;-74
2021/12/18 12:49:07;;;;;;;28.08;15.10;;;;;;;;;;4992349;28;20034;-74
2021/12/18 12:51:58;;;;;;;24.52;14.70;;;;;;;;;;4989689;28;20038;-75
2021/12/18 12:54:43;;;;;;;;;;;;;;;;;;4993588;28;20050;-75
2021/12/18 12:57:27;;;;;;;23.33;12.65;;;;;;;;;;4992819;28;19920;-74
2021/12/18 12:59:53;;;;;;;23.73;13.15;;;;;;;;;;4989377;28;20043;-74
2021/12/18 13:02:20;;;;;;;35.10;17.20;;;;;;;;;;4991850;28;20045;-74
2021/12/18 13:04:48;;;;;;;25.15;14.52;;;;;;;;;;4994742;28;20047;-75
2021/12/18 13:07:14;;;;;;;23.77;12.77;;;;;;;;;;4978638;28;20520;-73
2021/12/18 13:09:46;;;;;;;22.75;13.10;;;;;;;;;;4974373;28;20106;-74
2021/12/18 13:12:13;;;;;;;22.98;12.65;;;;;;;;;;4976320;28;20497;-73
2021/12/18 13:14:41;;;;;;;17.65;10.60;;;;;;;;;;4976071;28;20043;-74
2021/12/18 13:17:20;;;;;;;20.85;11.85;;;;;;;;;;4974471;28;20524;-73
2021/12/18 13:20:05;;;;;;;23.52;12.98;;;;;;;;;;4975840;28;20485;-73
2021/12/18 13:22:33;;;;;;;21.50;12.57;;;;;;;;;;4973843;28;20050;-74
2021/12/18 13:25:14;;;;;;;22.05;12.73;;;;;;;;;;4975529;28;20066;-73
2021/12/18 13:27:42;;;;;;;22.50;12.40;;;;;;;;;;4975755;28;20050;-74
2021/12/18 13:30:16;;;;;;;23.27;12.98;;;;;;;;;;4975130;28;20497;-73
2021/12/18 13:32:53;;;;;;;20.90;12.95;;;;;;;;;;4975363;28;20047;-73
2021/12/18 13:35:21;;;;;;;21.73;11.43;;;;;;;;;;4974896;28;20030;-74
2021/12/18 13:38:05;;;;;;;20.48;11.45;;;;;;;;;;4975223;28;20042;-74
2021/12/18 13:40:37;;;;;;;18.58;11.35;;;;;;;;;;4975109;28;20043;-74
2021/12/18 13:43:07;;;;;;;21.27;12.15;;;;;;;;;;4974623;28;20050;-77
2021/12/18 13:45:47;;;;;;;19.45;10.93;;;;;;;;;;4972095;28;20054;-74
2021/12/18 13:48:13;;;;;;;40.50;22.13;;;;;;;;;;4973327;28;20051;-74
2021/12/18 13:50:39;;;;;;;20.90;12.20;;;;;;;;;;4975039;28;20370;-75
2021/12/18 13:53:06;;;;;;;22.80;12.38;;;;;;;;;;4973157;28;20049;-76
2021/12/18 13:55:45;;;;;;;17.92;10.35;;;;;;;;;;4973610;28;20042;-76
2021/12/18 13:58:22;;;;;;;19.58;9.85;;;;;;;;;;4971649;28;20413;-76
2021/12/18 14:00:50;;;;;;;18.98;10.93;;;;;;;;;;4974266;28;20041;-76
2021/12/18 14:03:21;;;;;;;18.98;11.02;;;;;;;;;;4973114;28;20050;-75
2021/12/18 14:05:47;;;;;;;;;;;;;;;;;;4973211;28;20034;-75
2021/12/18 14:08:13;;;;;;;21.77;11.80;;;;;;;;;;4971943;28;19925;-76
2021/12/18 14:10:40;;;;;;;24.60;12.40;;;;;;;;;;4968651;28;20050;-74
2021/12/18 14:13:06;;;;;;;23.70;12.30;;;;;;;;;;4964260;28;20500;-75
2021/12/18 14:15:32;;;;;;;19.67;10.43;;;;;;;;;;4972467;28;20046;-77
2021/12/18 14:18:01;;;;;;;21.90;11.52;;;;;;;;;;4973317;28;20273;-77
2021/12/18 14:20:27;;;;;;;19.15;9.82;;;;;;;;;;4973120;28;20034;-77
2021/12/18 14:22:58;;;;;;;20.52;10.23;;;;;;;;;;4972765;28;20042;-78
2021/12/18 14:25:24;;;;;;;19.53;9.47;;;;;;;;;;4973219;28;20069;-75
2021/12/18 14:27:51;;;;;;;19.48;10.55;;;;;;;;;;4972366;28;20035;-76
2021/12/18 14:30:24;;;;;;;22.02;10.65;;;;;;;;;;4972649;28;20038;-75
2021/12/18 14:32:53;;;;;;;20.45;10.10;;;;;;;;;;4970046;28;20046;-74
2021/12/18 14:35:20;;;;;;;17.70;10.05;;;;;;;;;;4971818;28;20054;-76
2021/12/18 14:37:54;;;;;;;33.35;14.43;;;;;;;;;;4970177;28;20042;-75
2021/12/18 14:40:27;;;;;;;23.83;13.05;;;;;;;;;;4967910;28;20043;-75
2021/12/18 14:42:58;;;;;;;25.40;12.68;;;;;;;;;;4967230;28;20039;-74
2021/12/18 14:45:28;;;;;;;103.65;41.75;;;;;;;;;;4970454;28;20039;-74
2021/12/18 14:47:56;;;;;;;94.10;36.92;;;;;;;;;;4971385;28;20053;-74
2021/12/18 14:50:38;;;;;;;25.73;11.60;;;;;;;;;;4971212;28;20046;-74
2021/12/18 14:53:16;;;;;;;20.23;9.77;;;;;;;;;;4970706;28;20038;-74
2021/12/18 14:55:44;;;;;;;20.75;10.70;;;;;;;;;;4972588;28;20529;-74
2021/12/18 14:58:22;;;;;;;22.67;11.07;;;;;;;;;;4975333;28;20525;-74
2021/12/18 15:00:50;;;;;;;18.85;11.45;;;;;;;;;;4975042;28;20049;-75
2021/12/18 15:03:23;;;;;;;21.85;12.38;;;;;;;;;;4975411;28;20502;-75
2021/12/18 15:05:54;;;;;;;23.00;11.25;;;;;;;;;;4974523;28;20039;-75
2021/12/18 15:08:32;;;;;;;21.65;10.93;;;;;;;;;;4975578;28;20397;-76
2021/12/18 15:11:05;;;;;;;19.48;11.13;;;;;;;;;;4974904;28;20042;-75
2021/12/18 15:13:37;;;;;;;25.00;11.45;;;;;;;;;;4975559;28;20053;-76
2021/12/18 15:16:36;;;;;;;27.98;10.75;;;;;;;;;;4976380;28;20536;-75
2021/12/18 15:19:11;;;;;;;25.35;11.00;;;;;;;;;;4976739;28;20047;-74
2021/12/18 15:21:40;;;;;;;24.48;11.75;;;;;;;;;;4975956;28;20035;-74